Terminal Aerodrome Forecast
Issued by NWS Sterling, VA

Current Version | Previous Version | Text Only | Print | Product List | Glossary Off
Versions: 1 2 3 4 5 6 7 8 9 10 11 12 13 14 15 16 17 18 19 20 21 22 23

000
FTUS41 KLWX 302300
TAFDCA
TAF
KDCA 302336Z 0100/0124 11004KT P6SM BKN250
     FM010400 00000KT P6SM BKN035
     FM011000 03005KT 5SM BR BKN010
     FM011400 04005KT P6SM BKN015
     FM011600 04005KT P6SM BKN025
     FM011700 02005KT P6SM BKN040
     FM011800 01005KT P6SM SCT050=

USA.gov is the U.S. government's official web portal to all federal, state and local government web resources and services.